Time;durP1;ratioP1;P1;durP2;ratioP2;P2;SDS_P1;SDS_P2;PMS_P1;PMS_P2;Temp;Humidity;BMP_temperature;BMP_pressure;BME280_temperature;BME280_humidity;BME280_pressure;Samples;Min_cycle;Max_cycle;Signal;HPM_P1;HPM_P2
2021/03/06 00:01:08;;;;;;;12.00;7.77;;;;;;;-0.32;50.53;102138.38;8518780;33;20164;-73
2021/03/06 00:06:12;;;;;;;15.00;8.53;;;;;;;-0.31;50.95;102140.97;8545317;33;21158;-73
2021/03/06 00:11:14;;;;;;;16.23;8.60;;;;;;;-0.58;51.49;102147.31;8519821;33;20464;-73
2021/03/06 00:16:16;;;;;;;13.93;9.13;;;;;;;-0.74;52.14;102141.28;8530447;33;20920;-73
2021/03/06 00:21:19;;;;;;;14.07;8.73;;;;;;;-0.61;52.20;102146.47;8531047;33;21488;-73
2021/03/06 00:26:23;;;;;;;15.20;8.90;;;;;;;-0.54;52.38;102157.00;8515736;33;20572;-73
2021/03/06 00:31:25;;;;;;;12.73;8.20;;;;;;;-0.53;51.87;102158.75;8542012;33;20940;-73
2021/03/06 00:36:28;;;;;;;12.90;8.10;;;;;;;-0.52;52.12;102157.88;8517695;33;20160;-73
2021/03/06 00:41:31;;;;;;;12.07;7.63;;;;;;;-0.60;52.11;102148.25;8541855;33;20145;-73
2021/03/06 00:46:33;;;;;;;11.00;6.97;;;;;;;-0.66;52.45;102154.41;8540761;33;20140;-73
2021/03/06 00:51:37;;;;;;;12.33;7.30;;;;;;;-0.79;52.45;102155.41;8542023;33;20413;-73
2021/03/06 00:56:47;;;;;;;13.33;7.53;;;;;;;-0.97;53.14;102153.72;8518668;33;20979;-73
2021/03/06 01:01:52;;;;;;;10.60;7.00;;;;;;;-0.91;53.82;102156.31;8545379;33;20338;-73
2021/03/06 01:06:56;;;;;;;12.67;7.47;;;;;;;-1.01;54.24;102147.59;8544373;33;20156;-73
2021/03/06 01:11:58;;;;;;;15.73;8.10;;;;;;;-1.11;54.78;102152.91;8541992;33;20191;-73
2021/03/06 01:17:00;;;;;;;13.50;7.73;;;;;;;-1.06;54.80;102146.75;8541186;33;20176;-73
2021/03/06 01:22:04;;;;;;;14.23;7.87;;;;;;;-1.08;55.41;102135.31;8543112;33;20402;-73
2021/03/06 01:27:10;;;;;;;18.17;9.07;;;;;;;-0.96;54.67;102131.72;8542648;33;20421;-72
2021/03/06 01:32:12;;;;;;;14.93;8.03;;;;;;;-1.10;54.57;102130.91;8544796;33;20500;-73
2021/03/06 01:37:16;;;;;;;10.30;7.40;;;;;;;-1.17;55.55;102128.31;8541533;33;20688;-73
2021/03/06 01:42:19;;;;;;;11.87;7.97;;;;;;;-1.19;55.25;102134.47;8536561;33;20330;-73
2021/03/06 01:47:21;;;;;;;14.90;8.23;;;;;;;-1.35;55.98;102132.78;8536155;33;20441;-73
2021/03/06 01:52:24;;;;;;;13.60;7.90;;;;;;;-1.38;56.17;102130.16;8538128;33;20155;-73
2021/03/06 01:57:29;;;;;;;12.47;8.17;;;;;;;-1.16;56.21;102118.63;8540271;33;20542;-73
2021/03/06 02:02:31;;;;;;;14.90;8.63;;;;;;;-1.09;55.50;102115.09;8519427;33;20472;-73
2021/03/06 02:07:35;;;;;;;16.27;8.60;;;;;;;-1.26;56.43;102111.66;8545889;33;20194;-73
2021/03/06 02:12:50;;;;;;;11.60;7.97;;;;;;;-1.26;56.68;102109.00;8545433;33;20515;-72
2021/03/06 02:17:58;;;;;;;13.53;7.60;;;;;;;-1.22;56.93;102102.84;8541030;33;20421;-72
2021/03/06 02:23:50;;;;;;;10.17;7.40;;;;;;;-1.32;56.73;102109.03;8539705;33;20403;-71
2021/03/06 02:29:07;;;;;;;11.10;7.87;;;;;;;-1.51;57.67;102121.41;8538383;33;20382;-72
2021/03/06 02:34:15;;;;;;;13.13;7.60;;;;;;;-1.53;57.44;102120.56;8538850;33;20461;-72
2021/03/06 02:39:21;;;;;;;12.30;6.57;;;;;;;-1.65;57.49;102113.53;8543096;33;20238;-72
2021/03/06 02:44:27;;;;;;;12.43;6.57;;;;;;;-1.78;58.32;102117.09;8520991;33;20416;-72
2021/03/06 02:49:30;;;;;;;9.33;6.13;;;;;;;-1.85;58.14;102116.22;8544205;33;20418;-72
2021/03/06 02:54:32;;;;;;;9.37;6.77;;;;;;;-1.95;58.58;102114.47;8529061;33;20455;-73
2021/03/06 03:00:01;;;;;;;10.57;7.53;;;;;;;-2.00;59.15;102121.50;8546281;33;20166;-73
2021/03/06 03:05:18;;;;;;;11.63;6.67;;;;;;;-1.97;59.33;102113.63;8509249;33;20420;-73
2021/03/06 03:10:22;;;;;;;9.77;6.50;;;;;;;-2.14;59.47;102109.25;8546986;33;20485;-72
2021/03/06 03:15:30;;;;;;;10.10;6.20;;;;;;;-2.19;59.83;102113.66;8560690;33;20148;-73
2021/03/06 03:20:38;;;;;;;9.83;6.67;;;;;;;-2.24;60.24;102112.78;8562979;33;21009;-73
2021/03/06 03:25:41;;;;;;;11.73;7.37;;;;;;;-2.17;60.19;102108.38;8556325;33;20184;-72
2021/03/06 03:30:44;;;;;;;11.87;7.33;;;;;;;-2.13;59.61;102108.38;8546584;33;20172;-72
2021/03/06 03:35:47;;;;;;;13.90;7.10;;;;;;;-2.16;59.97;102118.03;8553213;33;20128;-73
2021/03/06 03:40:50;;;;;;;9.07;6.63;;;;;;;-2.26;59.73;102113.66;8559148;33;20683;-73
2021/03/06 03:45:54;;;;;;;14.00;7.20;;;;;;;-2.42;59.83;102115.41;8554605;33;20417;-72
2021/03/06 03:50:58;;;;;;;10.77;7.43;;;;;;;-2.53;60.09;102113.63;8560030;33;20440;-73
2021/03/06 03:56:02;;;;;;;13.20;7.27;;;;;;;-2.63;60.62;102119.78;8558479;33;20167;-73
2021/03/06 04:01:05;;;;;;;15.33;7.90;;;;;;;-2.68;61.22;102121.53;8557374;33;20549;-73
2021/03/06 04:06:08;;;;;;;15.47;8.20;;;;;;;-2.71;61.37;102131.13;8557558;33;20287;-73
2021/03/06 04:11:11;;;;;;;18.33;9.27;;;;;;;-2.41;61.75;102130.28;8559997;33;20972;-73
2021/03/06 04:16:13;;;;;;;19.00;9.00;;;;;;;-2.32;61.67;102130.31;8561714;33;20505;-72
2021/03/06 04:21:16;;;;;;;15.70;9.67;;;;;;;-2.37;61.25;102132.94;8560896;33;20510;-73
2021/03/06 04:26:19;;;;;;;15.30;8.97;;;;;;;-2.45;61.72;102136.44;8561088;33;20206;-73
2021/03/06 04:31:21;;;;;;;16.57;8.90;;;;;;;-2.41;62.26;102132.94;8563093;33;20467;-73
2021/03/06 04:36:24;;;;;;;12.77;8.63;;;;;;;-2.40;62.12;102137.34;8570171;33;20429;-73
2021/03/06 04:41:26;;;;;;;16.40;8.83;;;;;;;-2.52;62.05;102138.22;8543356;33;20521;-72
2021/03/06 04:46:28;;;;;;;14.70;8.97;;;;;;;-2.44;62.88;102140.81;8563578;33;20420;-72
2021/03/06 04:51:32;;;;;;;16.30;8.57;;;;;;;-2.36;62.76;102142.63;8561677;33;20461;-73
2021/03/06 04:56:34;;;;;;;12.80;8.63;;;;;;;-2.42;61.78;102142.59;8538400;33;20653;-73
2021/03/06 05:01:36;;;;;;;17.57;8.97;;;;;;;-2.64;62.06;102151.34;8562415;33;21120;-73
2021/03/06 05:06:40;;;;;;;16.07;9.33;;;;;;;-2.80;62.40;102164.47;8564593;33;20184;-72
2021/03/06 05:11:42;;;;;;;20.03;10.07;;;;;;;-2.94;62.44;102155.63;8566772;33;20524;-72
2021/03/06 05:16:44;;;;;;;15.23;9.53;;;;;;;-3.07;63.21;102151.19;8566490;33;21030;-72
2021/03/06 05:21:47;;;;;;;17.20;11.23;;;;;;;-3.14;63.51;102157.34;8569317;33;20582;-72
2021/03/06 05:27:01;;;;;;;18.87;11.53;;;;;;;-3.23;63.88;102160.81;8564604;33;21012;-73
2021/03/06 05:32:06;;;;;;;18.77;11.57;;;;;;;-3.32;64.31;102166.00;8565272;33;20170;-72
2021/03/06 05:37:09;;;;;;;18.77;12.23;;;;;;;-3.28;64.54;102157.28;8569278;33;20696;-72
2021/03/06 05:42:12;;;;;;;23.47;12.20;;;;;;;-3.24;64.53;102172.16;8566073;33;20467;-72
2021/03/06 05:47:14;;;;;;;17.70;11.27;;;;;;;-3.00;64.55;102176.66;8564638;33;20458;-72
2021/03/06 05:52:19;;;;;;;21.23;12.17;;;;;;;-2.86;64.12;102169.69;8548637;33;20172;-72
2021/03/06 05:57:22;;;;;;;23.60;12.13;;;;;;;-2.87;63.68;102185.50;8552332;33;20250;-73
2021/03/06 06:02:25;;;;;;;21.17;12.13;;;;;;;-2.68;63.85;102184.66;8562913;33;20155;-72
2021/03/06 06:07:29;;;;;;;21.27;11.73;;;;;;;-2.63;63.54;102185.56;8563861;33;20426;-72
2021/03/06 06:12:32;;;;;;;21.63;12.57;;;;;;;-2.43;63.43;102193.50;8562593;33;20586;-72
2021/03/06 06:17:34;;;;;;;19.03;12.77;;;;;;;-2.24;63.02;102172.47;8522804;33;20436;-72
2021/03/06 06:22:37;;;;;;;20.03;11.67;;;;;;;-2.21;62.94;102183.00;8547393;33;21056;-72
2021/03/06 06:27:40;;;;;;;22.97;12.70;;;;;;;-2.08;63.10;102171.59;8545347;33;20490;-72
2021/03/06 06:32:44;;;;;;;16.80;10.07;;;;;;;-2.09;62.74;102178.59;8545214;33;20464;-72
2021/03/06 06:38:04;;;;;;;18.10;11.00;;;;;;;-2.07;62.71;102184.75;8545056;33;20194;-72
2021/03/06 06:43:22;;;;;;;13.83;8.90;;;;;;;-1.74;62.59;102180.34;8545659;33;20825;-73
2021/03/06 06:48:24;;;;;;;12.90;9.33;;;;;;;-1.07;62.16;102184.56;8552380;33;20155;-73
2021/03/06 06:53:29;;;;;;;14.03;9.47;;;;;;;-0.58;60.32;102189.56;8557848;33;20152;-73
2021/03/06 06:58:34;;;;;;;14.37;9.70;;;;;;;-0.45;59.67;102202.72;8558097;33;21293;-74
2021/03/06 07:03:36;;;;;;;15.83;9.73;;;;;;;-0.61;59.80;102197.50;8558450;33;20231;-75
2021/03/06 07:08:40;;;;;;;15.03;9.90;;;;;;;-0.58;60.16;102207.19;8564058;33;20552;-74
2021/03/06 07:13:42;;;;;;;15.43;10.00;;;;;;;-0.38;60.26;102197.38;8563763;33;20271;-73
2021/03/06 07:18:44;;;;;;;14.00;9.20;;;;;;;-0.59;60.60;102197.53;8562515;33;20214;-73
2021/03/06 07:23:48;;;;;;;13.67;8.33;;;;;;;-0.67;61.56;102205.47;8559116;33;20417;-73
2021/03/06 07:28:51;;;;;;;10.97;7.23;;;;;;;-0.64;61.68;102201.94;8542072;33;21310;-73
2021/03/06 07:33:55;;;;;;;10.60;5.70;;;;;;;-0.85;62.02;102209.09;8542062;33;20414;-72
2021/03/06 07:39:01;;;;;;;12.07;7.13;;;;;;;-0.73;62.67;102211.66;8536425;33;20848;-72
2021/03/06 07:44:05;;;;;;;8.73;5.83;;;;;;;-0.15;61.64;102207.78;8539231;33;20521;-73
2021/03/06 07:49:12;;;;;;;9.53;5.90;;;;;;;-0.04;61.36;102205.06;8541994;33;20447;-73
2021/03/06 07:54:16;;;;;;;12.37;7.27;;;;;;;0.08;60.57;102204.06;8540389;33;20470;-73
2021/03/06 07:59:48;;;;;;;6.90;4.27;;;;;;;0.09;60.80;102203.22;8546309;33;20596;-73
2021/03/06 08:04:50;;;;;;;8.77;6.77;;;;;;;0.61;60.46;102194.78;8541517;33;20187;-72
2021/03/06 08:09:59;;;;;;;6.47;5.83;;;;;;;0.58;60.02;102194.81;8542296;33;20512;-71
2021/03/06 08:15:37;;;;;;;12.60;6.77;;;;;;;1.19;59.83;102198.50;8553917;33;20206;-71
2021/03/06 08:20:40;;;;;;;15.13;6.60;;;;;;;1.69;58.87;102203.06;8567800;33;22435;-71
2021/03/06 08:25:43;;;;;;;8.27;5.83;;;;;;;2.44;56.87;102211.59;8600659;33;20439;-71
2021/03/06 08:30:45;;;;;;;13.00;6.13;;;;;;;2.64;55.49;102205.94;8575729;33;21202;-71
2021/03/06 08:35:48;;;;;;;10.18;6.35;;;;;;;2.20;56.47;102196.09;8598870;33;20553;-71
2021/03/06 08:40:53;;;;;;;10.80;5.97;;;;;;;1.76;57.73;102203.00;8568761;33;20648;-70
2021/03/06 08:45:56;;;;;;;9.80;6.00;;;;;;;1.91;58.29;102205.41;8592709;33;20427;-73
2021/03/06 08:50:59;;;;;;;13.07;6.60;;;;;;;2.43;57.52;102212.47;8594136;33;20183;-71
2021/03/06 08:56:02;;;;;;;17.40;6.30;;;;;;;2.37;56.68;102205.50;8557218;33;20130;-71
2021/03/06 09:01:05;;;;;;;7.90;5.97;;;;;;;2.55;54.91;102212.28;8538621;33;20179;-72
2021/03/06 09:06:09;;;;;;;13.03;6.47;;;;;;;2.97;54.64;102209.69;8538298;33;20531;-71
2021/03/06 09:11:12;;;;;;;8.60;5.30;;;;;;;3.38;52.83;102223.91;8509319;33;20451;-71
2021/03/06 09:16:14;;;;;;;11.03;5.07;;;;;;;3.63;51.54;102210.94;8531400;33;20440;-72
2021/03/06 09:21:20;;;;;;;6.90;4.27;;;;;;;3.78;50.17;102208.81;8532172;33;20129;-72
2021/03/06 09:26:26;;;;;;;5.40;3.60;;;;;;;3.85;50.29;102199.81;8531951;33;20183;-72
2021/03/06 09:31:31;;;;;;;2.33;2.20;;;;;;;4.32;47.10;102197.72;8532247;33;20412;-72
2021/03/06 09:36:34;;;;;;;2.20;2.00;;;;;;;4.38;47.10;102202.88;8538100;33;20693;-71
2021/03/06 09:41:38;;;;;;;4.50;3.33;;;;;;;4.76;46.94;102207.19;8533597;33;20415;-72
2021/03/06 09:46:41;;;;;;;7.18;3.60;;;;;;;4.90;46.03;102208.59;8532999;33;20233;-71
2021/03/06 09:51:45;;;;;;;10.38;3.58;;;;;;;5.55;44.85;102224.47;8534468;33;20530;-71
2021/03/06 09:56:51;;;;;;;2.47;2.28;;;;;;;4.89;45.40;102207.72;8561792;33;20384;-71
2021/03/06 10:01:54;;;;;;;7.85;3.97;;;;;;;5.91;44.07;102201.06;8566050;33;20949;-72
2021/03/06 10:06:59;;;;;;;6.07;3.58;;;;;;;6.09;42.96;102202.28;8569074;33;20428;-71
2021/03/06 10:12:06;;;;;;;5.45;3.63;;;;;;;6.57;42.85;102217.53;8573777;33;20528;-71
2021/03/06 10:17:10;;;;;;;2.08;1.83;;;;;;;6.07;43.59;102212.13;8573506;33;20181;-72
2021/03/06 10:22:15;;;;;;;3.70;2.30;;;;;;;6.13;43.25;102214.59;8578179;33;20445;-71
2021/03/06 10:27:18;;;;;;;3.60;2.72;;;;;;;5.41;45.12;102216.00;8555007;33;20495;-70
2021/03/06 10:32:20;;;;;;;4.00;2.88;;;;;;;5.16;45.26;102222.06;8564176;33;20174;-71
2021/03/06 10:37:23;;;;;;;4.03;3.03;;;;;;;5.42;45.18;102221.28;8552459;33;20135;-71
2021/03/06 10:42:43;;;;;;;3.47;2.58;;;;;;;5.65;44.40;102225.94;8579763;33;20226;-71
2021/03/06 10:47:49;;;;;;;6.45;3.20;;;;;;;6.10;44.08;102228.03;8586430;33;20423;-71
2021/03/06 10:52:53;;;;;;;6.22;3.40;;;;;;;7.05;42.11;102215.84;8583626;33;20458;-72
2021/03/06 10:57:56;;;;;;;5.95;3.33;;;;;;;6.28;43.13;102220.31;8528388;33;20183;-72
2021/03/06 11:03:01;;;;;;;5.88;3.17;;;;;;;5.68;44.56;102216.97;8527896;33;20467;-72
2021/03/06 11:08:22;;;;;;;5.68;3.17;;;;;;;6.16;43.72;102216.28;8528962;33;20403;-72
2021/03/06 11:13:38;;;;;;;4.35;3.08;;;;;;;6.42;42.75;102203.81;8564886;33;20434;-71
2021/03/06 11:18:43;;;;;;;5.10;3.05;;;;;;;5.69;44.83;102208.03;8586355;33;20417;-71
2021/03/06 11:23:45;;;;;;;5.32;3.55;;;;;;;7.55;41.67;102194.31;8588890;33;20553;-71
2021/03/06 11:28:48;;;;;;;4.15;1.38;;;;;;;8.20;39.35;102197.03;8595977;33;20154;-71
2021/03/06 11:33:50;;;;;;;2.60;2.40;;;;;;;9.07;38.68;102185.16;8599721;33;20297;-72
2021/03/06 11:38:53;;;;;;;2.53;2.00;;;;;;;10.85;34.83;102173.59;8603821;33;20418;-71
2021/03/06 11:43:56;;;;;;;3.08;1.70;;;;;;;9.22;37.60;102162.13;8592837;33;20809;-73
2021/03/06 11:48:58;;;;;;;3.00;2.25;;;;;;;10.19;36.03;102152.91;8616700;33;20186;-70
2021/03/06 11:54:01;;;;;;;2.58;2.22;;;;;;;12.75;32.94;102146.47;8595523;33;20247;-74
2021/03/06 11:59:04;;;;;;;2.17;1.40;;;;;;;10.74;34.71;102147.28;8558321;33;20609;-71
2021/03/06 12:04:06;;;;;;;4.43;2.50;;;;;;;10.01;36.05;102135.94;8556879;33;20247;-71
2021/03/06 12:09:09;;;;;;;3.25;2.60;;;;;;;9.90;36.07;102119.47;8555447;33;20955;-72
2021/03/06 12:14:12;;;;;;;5.30;2.60;;;;;;;9.08;36.93;102113.63;8522734;33;20421;-71
2021/03/06 12:19:14;;;;;;;5.82;2.38;;;;;;;8.75;40.89;102114.25;8558133;33;20429;-72
2021/03/06 12:24:16;;;;;;;3.80;2.60;;;;;;;11.84;34.61;102102.53;8561545;33;20431;-72
2021/03/06 12:29:19;;;;;;;4.38;2.33;;;;;;;13.73;31.25;102096.06;8554141;33;20581;-72
2021/03/06 12:34:22;;;;;;;6.25;2.95;;;;;;;11.42;34.67;102085.25;8548640;33;20189;-72
2021/03/06 12:39:24;;;;;;;4.82;2.22;;;;;;;12.38;32.99;102091.25;8525062;33;21077;-73
2021/03/06 12:44:27;;;;;;;3.70;2.50;;;;;;;16.07;28.39;102080.06;8549195;33;20529;-72
2021/03/06 12:49:29;;;;;;;4.43;2.53;;;;;;;11.76;34.10;102079.72;8557022;33;20144;-71
2021/03/06 12:54:32;;;;;;;3.55;2.40;;;;;;;11.97;33.97;102065.00;8561263;33;20222;-72
2021/03/06 12:59:35;;;;;;;3.88;2.55;;;;;;;10.45;36.25;102059.31;8535296;33;20485;-71
2021/03/06 13:04:37;;;;;;;4.03;3.05;;;;;;;9.61;37.72;102061.88;8563597;33;20206;-71
2021/03/06 13:09:40;;;;;;;3.88;2.63;;;;;;;7.93;41.30;102053.63;8562033;33;20951;-71
2021/03/06 13:14:43;;;;;;;2.97;2.60;;;;;;;9.11;40.68;102041.13;8561196;33;20492;-72
2021/03/06 13:19:46;;;;;;;4.85;2.60;;;;;;;9.75;37.99;102037.03;8540505;33;20436;-71
2021/03/06 13:24:48;;;;;;;2.38;2.17;;;;;;;9.34;38.92;102037.28;8542307;33;21171;-71
2021/03/06 13:29:51;;;;;;;3.05;2.33;;;;;;;8.93;39.29;102033.00;8566968;33;20824;-70
2021/03/06 13:34:53;;;;;;;3.20;2.22;;;;;;;8.66;40.24;102024.47;8567458;33;20211;-71
2021/03/06 13:39:56;;;;;;;3.47;2.22;;;;;;;7.97;40.46;102029.38;8549081;33;21175;-71
2021/03/06 13:44:59;;;;;;;5.07;2.72;;;;;;;7.65;41.42;102013.81;8571971;33;20470;-71
2021/03/06 13:50:01;;;;;;;3.65;2.97;;;;;;;7.93;41.27;102012.59;8572192;33;20520;-71
2021/03/06 13:55:07;;;;;;;5.53;3.00;;;;;;;8.29;41.57;102001.19;8571914;33;20128;-71
2021/03/06 14:00:11;;;;;;;4.80;2.72;;;;;;;8.43;40.74;102003.22;8572032;33;20758;-71
2021/03/06 14:05:13;;;;;;;4.20;2.85;;;;;;;7.86;42.18;102005.78;8573763;33;20132;-72
2021/03/06 14:10:16;;;;;;;4.57;3.30;;;;;;;7.31;43.18;102009.00;8569206;33;20187;-72
2021/03/06 14:15:20;;;;;;;7.03;2.97;;;;;;;6.97;43.43;101999.69;8572052;33;20427;-73
2021/03/06 14:20:22;;;;;;;4.32;2.95;;;;;;;6.93;44.70;101991.84;8572979;33;20136;-72
2021/03/06 14:25:24;;;;;;;2.65;2.20;;;;;;;7.00;43.66;101988.03;8571158;33;20163;-72
2021/03/06 14:30:27;;;;;;;4.32;2.30;;;;;;;7.27;43.20;101981.53;8569935;33;20226;-72
2021/03/06 14:35:29;;;;;;;2.70;2.45;;;;;;;7.51;42.97;101978.75;8565644;33;20219;-72
2021/03/06 14:40:33;;;;;;;3.50;2.90;;;;;;;7.44;43.25;101967.44;8565651;33;20480;-71
2021/03/06 14:45:37;;;;;;;2.97;2.70;;;;;;;7.29;44.48;101968.09;8563710;33;20988;-71
2021/03/06 14:50:40;;;;;;;3.38;2.70;;;;;;;7.72;43.78;101958.22;8561846;33;20254;-73
2021/03/06 14:55:42;;;;;;;5.45;3.38;;;;;;;7.24;43.51;101951.38;8560458;33;20433;-74
2021/03/06 15:00:45;;;;;;;2.92;2.63;;;;;;;6.95;43.96;101947.25;8564750;33;20459;-74
2021/03/06 15:05:47;;;;;;;4.65;3.55;;;;;;;7.35;43.80;101941.13;8562797;33;20784;-73
2021/03/06 15:10:50;;;;;;;5.93;5.13;;;;;;;7.25;44.13;101929.06;8562407;33;20203;-72
2021/03/06 15:15:54;;;;;;;3.50;2.90;;;;;;;7.10;44.32;101927.03;8564988;33;20574;-71
2021/03/06 15:20:56;;;;;;;5.47;3.80;;;;;;;6.82;44.74;101922.81;8563694;33;20432;-71
2021/03/06 15:26:16;;;;;;;6.13;4.43;;;;;;;7.18;44.29;101916.88;8563165;33;20191;-71
2021/03/06 15:31:19;;;;;;;3.13;2.58;;;;;;;6.98;44.34;101913.25;8557798;33;20172;-72
2021/03/06 15:36:22;;;;;;;5.43;3.63;;;;;;;6.79;45.15;101915.78;8556427;33;20543;-72
2021/03/06 15:41:24;;;;;;;3.85;2.50;;;;;;;6.37;45.53;101918.38;8554899;33;20465;-73
2021/03/06 15:46:27;;;;;;;3.65;2.53;;;;;;;6.21;45.14;101909.22;8532883;33;20438;-73
2021/03/06 15:51:30;;;;;;;2.72;2.53;;;;;;;6.18;45.80;101910.22;8557094;33;20652;-72
2021/03/06 15:56:32;;;;;;;6.38;4.68;;;;;;;6.26;46.16;101901.91;8510178;33;20522;-72
2021/03/06 16:01:38;;;;;;;5.30;3.22;;;;;;;6.07;46.96;101896.41;8505198;33;21907;-73
2021/03/06 16:06:41;;;;;;;5.60;2.97;;;;;;;6.25;46.38;101894.81;8507312;33;20241;-73
2021/03/06 16:11:43;;;;;;;3.60;2.58;;;;;;;6.20;46.64;101894.13;8510628;33;21181;-73
2021/03/06 16:16:46;;;;;;;3.30;2.80;;;;;;;6.07;46.63;101889.28;8511770;33;20470;-72
2021/03/06 16:21:48;;;;;;;4.30;2.63;;;;;;;5.89;47.28;101882.81;8515040;33;20133;-73
2021/03/06 16:26:50;;;;;;;3.38;3.03;;;;;;;5.78;47.65;101890.38;8509468;33;20182;-74
2021/03/06 16:31:53;;;;;;;3.13;2.47;;;;;;;5.76;47.73;101880.69;8505238;33;20189;-72
2021/03/06 16:36:56;;;;;;;4.80;3.00;;;;;;;5.67;47.79;101885.41;8501473;33;20470;-72
2021/03/06 16:41:58;;;;;;;7.35;4.97;;;;;;;5.69;48.77;101878.25;8489457;33;20457;-73
2021/03/06 16:47:01;;;;;;;7.57;5.22;;;;;;;5.76;47.98;101870.00;8490169;33;20133;-73
2021/03/06 16:52:05;;;;;;;17.20;12.50;;;;;;;5.65;47.64;101871.31;8489020;33;20642;-72
2021/03/06 16:57:07;;;;;;;4.22;3.22;;;;;;;5.54;47.64;101867.25;8546126;33;20472;-72
2021/03/06 17:02:10;;;;;;;4.38;3.60;;;;;;;5.43;47.67;101872.97;8542056;33;20184;-72
2021/03/06 17:07:13;;;;;;;4.22;3.25;;;;;;;5.37;48.02;101868.75;8551627;33;21056;-71
2021/03/06 17:12:15;;;;;;;4.05;3.63;;;;;;;5.48;48.68;101873.69;8532120;33;20975;-72
2021/03/06 17:17:20;;;;;;;4.57;3.80;;;;;;;5.49;49.49;101870.13;8534225;33;20442;-71
2021/03/06 17:22:22;;;;;;;3.90;3.33;;;;;;;5.46;49.32;101875.56;8561191;33;20862;-73
2021/03/06 17:27:24;;;;;;;4.28;3.38;;;;;;;5.39;49.83;101866.91;8561184;33;22297;-72
2021/03/06 17:32:27;;;;;;;6.82;5.63;;;;;;;5.24;50.14;101873.66;8555368;33;20180;-72
2021/03/06 17:37:30;;;;;;;6.32;4.70;;;;;;;5.33;49.64;101876.91;8561469;33;20464;-72
2021/03/06 17:42:32;;;;;;;4.15;3.72;;;;;;;5.26;48.75;101879.78;8559847;33;20429;-72
2021/03/06 17:47:36;;;;;;;7.07;4.40;;;;;;;5.29;48.65;101881.47;8558599;33;20653;-72
2021/03/06 17:52:39;;;;;;;7.15;5.00;;;;;;;5.26;48.46;101878.91;8557363;33;20471;-72
2021/03/06 17:57:42;;;;;;;7.47;5.45;;;;;;;5.22;48.41;101879.97;8487546;33;20176;-71
2021/03/06 18:02:45;;;;;;;6.18;5.40;;;;;;;5.14;48.30;101880.22;8492006;33;20564;-73
2021/03/06 18:07:47;;;;;;;9.98;7.88;;;;;;;5.05;48.36;101883.22;8485339;33;20501;-70
2021/03/06 18:12:49;;;;;;;9.85;6.97;;;;;;;5.03;47.89;101882.38;8487383;33;20855;-72
2021/03/06 18:17:52;;;;;;;8.20;6.10;;;;;;;5.00;48.06;101878.03;8499282;33;20476;-72
2021/03/06 18:22:54;;;;;;;5.65;4.38;;;;;;;4.97;47.91;101875.44;8548746;33;20625;-72
2021/03/06 18:27:59;;;;;;;6.15;3.50;;;;;;;4.86;48.16;101871.41;8542800;33;20708;-72
2021/03/06 18:33:03;;;;;;;7.03;4.63;;;;;;;4.71;48.01;101862.13;8541353;33;20400;-72
2021/03/06 18:38:06;;;;;;;4.60;4.00;;;;;;;4.68;48.14;101872.88;8519181;33;20449;-72
2021/03/06 18:43:08;;;;;;;5.28;3.97;;;;;;;4.67;48.42;101864.03;8542754;33;21130;-72
2021/03/06 18:48:12;;;;;;;7.95;4.55;;;;;;;4.48;49.64;101862.88;8539612;33;20853;-73
2021/03/06 18:53:30;;;;;;;7.95;5.00;;;;;;;4.59;48.87;101853.63;8540374;33;20553;-73
2021/03/06 18:58:32;;;;;;;8.93;6.88;;;;;;;4.57;49.52;101862.56;8539666;33;20320;-72
2021/03/06 19:03:35;;;;;;;8.02;5.45;;;;;;;4.56;49.38;101859.03;8538413;33;20286;-73
2021/03/06 19:08:38;;;;;;;10.90;6.13;;;;;;;4.55;49.32;101852.00;8538006;33;20414;-73
2021/03/06 19:13:40;;;;;;;24.67;16.95;;;;;;;4.50;49.74;101845.94;8553714;33;20172;-73
2021/03/06 19:18:43;;;;;;;27.08;18.05;;;;;;;4.55;49.09;101832.47;8548146;33;20224;-74
2021/03/06 19:23:46;;;;;;;13.63;11.02;;;;;;;4.53;49.13;101835.19;8562900;33;20421;-73
2021/03/06 19:28:48;;;;;;;10.82;8.77;;;;;;;4.31;49.97;101823.50;8561571;33;20917;-72
2021/03/06 19:33:51;;;;;;;10.75;8.20;;;;;;;4.24;49.88;101821.94;8587229;33;20187;-72
2021/03/06 19:38:54;;;;;;;8.38;6.03;;;;;;;4.11;50.52;101818.78;8577008;33;20659;-73
2021/03/06 19:43:56;;;;;;;17.70;10.05;;;;;;;4.13;51.28;101817.84;8592292;33;20469;-73
2021/03/06 19:48:59;;;;;;;18.33;9.90;;;;;;;4.05;52.42;101819.84;8592153;33;20424;-72
2021/03/06 19:54:02;;;;;;;16.70;10.27;;;;;;;4.10;52.29;101809.09;8568061;33;20139;-74
2021/03/06 19:59:04;;;;;;;13.65;8.32;;;;;;;4.18;51.25;101807.06;8555536;33;20461;-74
2021/03/06 20:04:08;;;;;;;8.40;6.68;;;;;;;4.27;51.12;101806.75;8550530;33;20681;-74
2021/03/06 20:09:10;;;;;;;9.13;7.45;;;;;;;4.18;50.97;101813.25;8553420;33;20463;-74
2021/03/06 20:14:12;;;;;;;12.40;7.85;;;;;;;4.21;50.97;101812.28;8539104;33;20187;-73
2021/03/06 20:19:16;;;;;;;13.20;8.68;;;;;;;4.22;51.41;101805.16;8525997;33;20439;-73
2021/03/06 20:24:32;;;;;;;11.15;8.18;;;;;;;4.11;51.83;101801.06;8579690;33;20222;-73
2021/03/06 20:29:34;;;;;;;12.00;8.10;;;;;;;3.98;52.12;101794.41;8569539;33;20621;-73
2021/03/06 20:34:38;;;;;;;10.25;8.27;;;;;;;3.88;52.37;101798.25;8519663;33;20190;-73
2021/03/06 20:39:40;;;;;;;11.55;8.00;;;;;;;3.73;52.83;101796.94;8515599;33;20951;-73
2021/03/06 20:44:43;;;;;;;9.88;7.40;;;;;;;3.67;52.79;101800.63;8519977;33;20439;-72
2021/03/06 20:49:46;;;;;;;10.30;7.27;;;;;;;3.66;53.00;101800.69;8524488;33;20490;-73
2021/03/06 20:54:48;;;;;;;9.83;7.70;;;;;;;3.58;53.17;101790.28;8532395;33;20472;-73
2021/03/06 20:59:50;;;;;;;11.88;7.95;;;;;;;3.49;53.44;101787.91;8533599;33;20260;-73
2021/03/06 21:04:53;;;;;;;11.95;8.32;;;;;;;3.44;53.89;101796.00;8534326;33;20365;-73
2021/03/06 21:09:56;;;;;;;15.50;7.78;;;;;;;3.37;54.02;101790.88;8536649;33;21790;-72
2021/03/06 21:14:58;;;;;;;12.13;8.80;;;;;;;3.24;54.64;101793.03;8541500;33;20430;-72
2021/03/06 21:20:03;;;;;;;12.18;8.48;;;;;;;3.15;54.91;101791.50;8546007;33;20155;-73
2021/03/06 21:25:08;;;;;;;12.43;8.75;;;;;;;3.15;55.66;101791.50;8550593;33;21254;-73
2021/03/06 21:30:12;;;;;;;12.18;8.30;;;;;;;3.17;56.05;101778.19;8591993;33;21109;-72
2021/03/06 21:35:15;;;;;;;10.45;7.72;;;;;;;3.18;56.63;101771.94;8571868;33;20451;-73
2021/03/06 21:40:18;;;;;;;11.10;7.63;;;;;;;3.16;56.54;101772.00;8590336;33;20183;-73
2021/03/06 21:45:21;;;;;;;12.68;7.90;;;;;;;3.11;56.22;101765.09;8558474;33;20448;-73
2021/03/06 21:50:34;;;;;;;13.45;8.77;;;;;;;2.99;57.14;101768.94;8575576;33;20426;-72
2021/03/06 21:55:36;;;;;;;11.00;8.23;;;;;;;2.95;57.79;101769.94;8561401;33;20152;-72
2021/03/06 22:00:39;;;;;;;10.60;6.40;;;;;;;2.89;58.44;101770.09;8577921;33;20178;-72
2021/03/06 22:05:42;;;;;;;11.53;7.00;;;;;;;2.84;58.52;101760.47;8552941;33;21083;-73
2021/03/06 22:10:44;;;;;;;9.35;6.35;;;;;;;2.77;59.24;101760.66;8540364;33;21028;-72
2021/03/06 22:15:46;;;;;;;11.27;6.60;;;;;;;2.67;59.66;101767.16;8541794;33;20714;-73
2021/03/06 22:20:50;;;;;;;8.15;6.68;;;;;;;2.59;59.71;101748.78;8539496;33;20513;-73
2021/03/06 22:25:52;;;;;;;10.18;7.07;;;;;;;2.46;60.30;101742.00;8539420;33;20415;-73
2021/03/06 22:30:55;;;;;;;9.20;7.87;;;;;;;2.32;60.47;101737.91;8539267;33;20842;-73
2021/03/06 22:35:59;;;;;;;11.17;7.83;;;;;;;2.29;60.39;101723.88;8539267;33;20878;-73
2021/03/06 22:41:01;;;;;;;14.13;9.63;;;;;;;2.20;60.08;101717.03;8559354;33;20518;-73
2021/03/06 22:46:04;;;;;;;16.07;10.20;;;;;;;2.07;60.93;101710.28;8596618;33;20976;-73
2021/03/06 22:51:08;;;;;;;18.63;12.47;;;;;;;2.01;60.71;101718.38;8596434;33;20187;-73
2021/03/06 22:56:10;;;;;;;19.87;13.97;;;;;;;2.00;59.91;101700.72;8559733;33;20437;-72
2021/03/06 23:01:12;;;;;;;16.13;12.47;;;;;;;1.93;60.78;101700.88;8540401;33;20417;-72
2021/03/06 23:06:15;;;;;;;18.43;13.30;;;;;;;1.83;60.46;101694.03;8510937;33;21415;-73
2021/03/06 23:11:18;;;;;;;19.50;13.57;;;;;;;1.60;60.52;101691.94;8535078;33;20225;-73
2021/03/06 23:16:21;;;;;;;19.63;12.87;;;;;;;1.38;61.24;101694.19;8534483;33;20180;-72
2021/03/06 23:21:26;;;;;;;22.50;14.47;;;;;;;1.20;61.51;101690.16;8538992;33;20195;-72
2021/03/06 23:26:29;;;;;;;27.30;16.13;;;;;;;1.03;61.43;101682.56;8537532;33;20184;-72
2021/03/06 23:31:33;;;;;;;30.20;17.73;;;;;;;1.03;61.89;101679.94;8536150;33;20970;-73